Time;durP1;ratioP1;P1;durP2;ratioP2;P2;SDS_P1;SDS_P2;PMS_P1;PMS_P2;Temp;Humidity;BMP_temperature;BMP_pressure;BME280_temperature;BME280_humidity;BME280_pressure;Samples;Min_cycle;Max_cycle;Signal;HPM_P1;HPM_P2
2023/11/18 00:00:41;;;;;;;23.35;14.88;;;;;;;6.56;100.00;102268.28;4922474;29;20437;-68
2023/11/18 00:03:29;;;;;;;22.08;16.05;;;;;;;6.54;100.00;102264.94;4921437;29;20544;-67
2023/11/18 00:06:18;;;;;;;23.67;14.98;;;;;;;6.51;100.00;102260.75;4936425;29;20138;-67
2023/11/18 00:09:06;;;;;;;26.48;15.80;;;;;;;6.53;100.00;102255.97;4947232;29;20048;-66
2023/11/18 00:11:54;;;;;;;21.90;15.90;;;;;;;6.55;100.00;102261.19;4921739;29;20496;-67
2023/11/18 00:14:42;;;;;;;21.15;15.07;;;;;;;6.54;100.00;102257.66;4934846;29;20420;-66
2023/11/18 00:17:31;;;;;;;23.52;16.38;;;;;;;6.55;100.00;102261.19;4935430;29;20050;-66
2023/11/18 00:20:20;;;;;;;22.52;14.50;;;;;;;6.51;100.00;102259.94;4935137;29;20048;-66
2023/11/18 00:23:08;;;;;;;21.17;15.95;;;;;;;6.50;100.00;102252.88;4922096;29;20058;-68
2023/11/18 00:25:56;;;;;;;21.45;14.80;;;;;;;6.50;100.00;102247.44;4935146;29;20071;-67
2023/11/18 00:28:44;;;;;;;21.70;15.32;;;;;;;6.49;100.00;102251.19;4935511;29;20386;-67
2023/11/18 00:31:32;;;;;;;22.02;14.90;;;;;;;6.48;100.00;102242.22;4935457;29;20040;-66
2023/11/18 00:34:20;;;;;;;23.50;15.38;;;;;;;6.45;100.00;102244.53;4959616;28;20147;-66
2023/11/18 00:37:09;;;;;;;21.27;15.23;;;;;;;6.46;100.00;102247.00;4922683;29;20106;-66
2023/11/18 00:39:57;;;;;;;20.52;14.68;;;;;;;6.46;100.00;102241.59;4966202;28;20058;-62
2023/11/18 00:42:45;;;;;;;22.45;15.55;;;;;;;6.48;100.00;102246.81;4939924;29;20538;-59
2023/11/18 00:45:34;;;;;;;23.30;17.08;;;;;;;6.48;100.00;102250.34;4956790;28;20063;-65
2023/11/18 00:48:22;;;;;;;21.77;14.32;;;;;;;6.44;100.00;102245.56;4961803;29;20067;-61
2023/11/18 00:51:10;;;;;;;22.13;15.90;;;;;;;6.39;100.00;102241.56;4953197;29;20079;-60
2023/11/18 00:54:00;;;;;;;20.45;14.60;;;;;;;6.38;100.00;102245.34;4955317;29;20031;-66
2023/11/18 00:56:49;;;;;;;24.63;16.17;;;;;;;6.37;100.00;102248.22;4950619;29;20055;-67
2023/11/18 00:59:41;;;;;;;21.92;15.55;;;;;;;6.31;100.00;102252.59;4922540;29;20075;-66
2023/11/18 01:02:29;;;;;;;21.13;15.25;;;;;;;6.29;100.00;102259.25;4921955;29;20075;-67
2023/11/18 01:05:17;;;;;;;19.88;15.02;;;;;;;6.30;100.00;102261.78;4933577;29;20052;-67
2023/11/18 01:08:05;;;;;;;21.58;15.10;;;;;;;6.25;100.00;102260.69;4933682;29;20050;-67
2023/11/18 01:10:54;;;;;;;25.65;16.52;;;;;;;6.26;100.00;102262.38;4921257;29;20054;-67
2023/11/18 01:13:42;;;;;;;22.00;15.23;;;;;;;6.26;100.00;102257.81;4935506;29;20048;-67
2023/11/18 01:16:30;;;;;;;22.63;15.85;;;;;;;6.27;100.00;102269.47;4929836;28;20556;-66
2023/11/18 01:19:18;;;;;;;21.95;15.02;;;;;;;6.25;100.00;102272.34;4929274;29;20142;-66
2023/11/18 01:22:06;;;;;;;21.95;14.90;;;;;;;6.22;100.00;102272.78;4935179;29;20051;-67
2023/11/18 01:24:54;;;;;;;19.27;13.75;;;;;;;6.25;100.00;102272.34;4947186;28;20052;-67
2023/11/18 01:27:42;;;;;;;21.20;15.25;;;;;;;6.24;100.00;102268.00;4946973;29;20054;-66
2023/11/18 01:30:30;;;;;;;21.55;14.48;;;;;;;6.26;100.00;102273.22;4935254;29;20131;-66
2023/11/18 01:33:19;;;;;;;22.15;16.15;;;;;;;6.28;100.00;102277.38;4934594;29;20535;-66
2023/11/18 01:36:09;;;;;;;21.65;15.43;;;;;;;6.28;100.00;102274.69;4933183;29;20124;-68
2023/11/18 01:38:57;;;;;;;23.75;15.30;;;;;;;6.29;100.00;102270.09;4935591;29;20052;-66
2023/11/18 01:41:48;;;;;;;20.30;14.88;;;;;;;6.30;100.00;102264.50;4946955;29;20111;-66
2023/11/18 01:44:36;;;;;;;20.70;14.35;;;;;;;6.30;100.00;102261.78;4902447;29;20052;-67
2023/11/18 01:47:24;;;;;;;23.30;15.82;;;;;;;6.32;100.00;102261.56;4928105;29;20055;-67
2023/11/18 01:50:14;;;;;;;21.55;15.00;;;;;;;6.33;100.00;102263.25;4926092;29;20103;-67
2023/11/18 01:53:02;;;;;;;22.10;15.35;;;;;;;6.34;100.00;102260.31;4937622;29;20062;-67
2023/11/18 01:55:50;;;;;;;23.23;15.43;;;;;;;6.35;100.00;102261.13;4924620;29;20065;-66
2023/11/18 01:58:40;;;;;;;19.25;14.50;;;;;;;6.36;100.00;102255.53;4912016;29;20081;-66
2023/11/18 02:01:29;;;;;;;19.80;14.95;;;;;;;6.38;100.00;102252.63;4924271;29;20500;-69
2023/11/18 02:04:19;;;;;;;21.95;14.23;;;;;;;6.39;100.00;102252.41;4924282;29;20043;-66
2023/11/18 02:07:09;;;;;;;20.55;13.70;;;;;;;6.37;100.00;102257.22;4924878;29;20088;-67
2023/11/18 02:09:57;;;;;;;23.50;14.48;;;;;;;6.36;100.00;102252.00;4925383;29;20040;-67
2023/11/18 02:12:58;;;;;;;21.42;14.55;;;;;;;6.36;100.00;102252.00;4938102;29;20134;-67
2023/11/18 02:15:47;;;;;;;19.52;14.93;;;;;;;6.37;100.00;102254.50;4936925;29;20051;-67
2023/11/18 02:18:36;;;;;;;20.45;14.77;;;;;;;6.35;100.00;102261.13;4924838;29;20052;-66
2023/11/18 02:21:26;;;;;;;19.67;15.07;;;;;;;6.32;100.00;102267.78;4912115;29;20552;-66
2023/11/18 02:24:36;;;;;;;19.55;14.32;;;;;;;6.30;100.00;102263.63;4910135;29;20051;-66
2023/11/18 02:27:26;;;;;;;20.08;14.63;;;;;;;6.28;100.00;102268.44;4924378;29;20051;-66
2023/11/18 02:30:16;;;;;;;21.60;14.77;;;;;;;6.29;100.00;102267.38;4924835;29;20138;-68
2023/11/18 02:33:28;;;;;;;24.48;15.43;;;;;;;6.29;100.00;102273.63;4924252;29;20056;-67
2023/11/18 02:36:38;;;;;;;18.92;14.13;;;;;;;6.29;100.00;102273.63;4921053;29;20535;-67
2023/11/18 02:39:38;;;;;;;21.42;15.48;;;;;;;6.30;100.00;102279.88;4924255;29;20043;-68
2023/11/18 02:42:27;;;;;;;20.60;14.05;;;;;;;6.28;100.00;102266.56;4924332;29;20053;-67
2023/11/18 02:45:16;;;;;;;20.38;15.15;;;;;;;6.26;100.00;102262.38;4939015;29;20126;-67
2023/11/18 02:48:06;;;;;;;19.35;14.65;;;;;;;6.23;100.00;102266.34;4935026;29;20051;-67
2023/11/18 02:50:55;;;;;;;24.00;15.27;;;;;;;6.23;100.00;102258.22;4910893;29;20044;-68
2023/11/18 02:53:44;;;;;;;22.17;15.15;;;;;;;6.22;100.00;102253.81;4923602;29;20088;-68
2023/11/18 02:56:33;;;;;;;19.88;14.93;;;;;;;6.23;100.00;102249.25;4910854;29;20047;-68
2023/11/18 02:59:21;;;;;;;20.65;14.90;;;;;;;6.24;100.00;102240.94;4921716;29;20063;-68
2023/11/18 03:02:09;;;;;;;20.80;15.40;;;;;;;6.25;100.00;102234.47;4923045;29;20040;-67
2023/11/18 03:04:58;;;;;;;18.58;14.20;;;;;;;6.29;100.00;102221.38;4936164;29;20419;-67
2023/11/18 03:07:50;;;;;;;20.80;16.42;;;;;;;6.30;100.00;102226.59;4924302;29;20047;-68
2023/11/18 03:10:44;;;;;;;20.58;15.32;;;;;;;6.22;100.00;102224.06;4923799;29;20048;-67
2023/11/18 03:13:32;;;;;;;21.25;15.32;;;;;;;6.21;100.00;102224.28;4912819;29;20416;-67
2023/11/18 03:16:20;;;;;;;20.80;15.50;;;;;;;6.24;100.00;102226.56;4951093;29;20672;-67
2023/11/18 03:19:08;;;;;;;21.85;15.68;;;;;;;6.29;100.00;102224.06;4948113;29;20117;-67
2023/11/18 03:21:57;;;;;;;21.90;16.23;;;;;;;6.31;100.00;102232.84;4911098;29;20055;-67
2023/11/18 03:24:46;;;;;;;20.60;14.02;;;;;;;6.33;100.00;102236.16;4925379;29;20055;-67
2023/11/18 03:27:34;;;;;;;21.00;14.88;;;;;;;6.34;100.00;102233.25;4923775;29;20103;-66
2023/11/18 03:30:22;;;;;;;21.85;15.02;;;;;;;6.36;100.00;102235.75;4937533;29;20055;-67
2023/11/18 03:33:10;;;;;;;20.15;15.07;;;;;;;6.35;100.00;102229.50;4915957;29;20048;-66
2023/11/18 03:35:59;;;;;;;19.73;15.07;;;;;;;6.31;100.00;102225.53;4917703;29;20058;-67
2023/11/18 03:38:48;;;;;;;20.00;14.45;;;;;;;6.26;100.00;102230.72;4923609;29;20060;-67
2023/11/18 03:41:37;;;;;;;24.95;16.17;;;;;;;6.23;100.00;102236.56;4911900;29;20060;-66
2023/11/18 03:44:25;;;;;;;20.23;14.07;;;;;;;6.24;100.00;102227.41;4910353;29;20432;-66
2023/11/18 03:47:14;;;;;;;21.73;15.45;;;;;;;6.28;100.00;102217.00;4922946;29;20051;-66
2023/11/18 03:50:02;;;;;;;20.50;14.02;;;;;;;6.33;100.00;102211.81;4936580;29;20099;-66
2023/11/18 03:52:50;;;;;;;22.13;14.55;;;;;;;6.36;100.00;102198.69;4923167;29;20468;-66
2023/11/18 03:55:38;;;;;;;20.80;14.65;;;;;;;6.38;100.00;102187.66;4935634;29;20053;-66
2023/11/18 03:58:26;;;;;;;21.38;14.52;;;;;;;6.39;100.00;102173.91;4922665;29;20048;-67
2023/11/18 04:01:28;;;;;;;21.73;14.98;;;;;;;6.41;100.00;102173.69;4917355;29;20230;-67
2023/11/18 04:04:16;;;;;;;20.23;15.05;;;;;;;6.42;100.00;102179.94;4917533;29;20070;-67
2023/11/18 04:07:06;;;;;;;21.10;14.70;;;;;;;6.40;100.00;102158.50;4902588;29;20493;-67
2023/11/18 04:09:54;;;;;;;18.00;14.63;;;;;;;6.40;100.00;102156.63;4903338;29;20052;-67
2023/11/18 04:12:46;;;;;;;19.25;14.50;;;;;;;6.40;100.00;102144.97;4929901;29;20425;-67
2023/11/18 04:15:35;;;;;;;22.48;14.15;;;;;;;6.40;100.00;102143.09;4902280;29;20055;-67
2023/11/18 04:18:23;;;;;;;21.77;14.85;;;;;;;6.41;100.00;102141.22;4901326;29;20060;-66
2023/11/18 04:21:13;;;;;;;22.63;14.43;;;;;;;6.41;100.00;102141.22;4917161;29;20044;-67
2023/11/18 04:24:01;;;;;;;22.48;14.02;;;;;;;6.42;100.00;102152.88;4890003;29;20048;-67
2023/11/18 04:26:49;;;;;;;21.00;13.93;;;;;;;6.41;100.00;102152.03;4917279;29;20120;-67
2023/11/18 04:29:38;;;;;;;19.60;14.30;;;;;;;6.42;100.00;102151.00;4916824;29;20088;-67
2023/11/18 04:32:26;;;;;;;21.55;14.82;;;;;;;6.40;100.00;102143.09;4903287;29;20060;-66
2023/11/18 04:35:15;;;;;;;23.23;14.30;;;;;;;6.39;100.00;102140.59;4897117;29;20075;-66
2023/11/18 04:38:03;;;;;;;21.08;13.60;;;;;;;6.33;100.00;102128.72;4898405;29;20060;-67
2023/11/18 04:40:55;;;;;;;21.75;14.05;;;;;;;6.32;100.00;102118.91;4898641;29;20053;-66
2023/11/18 04:43:43;;;;;;;23.08;15.05;;;;;;;6.32;100.00;102116.22;4909683;29;20051;-66
2023/11/18 04:46:34;;;;;;;18.13;13.02;;;;;;;6.32;100.00;102121.63;4942647;29;20488;-66
2023/11/18 04:49:22;;;;;;;18.40;13.18;;;;;;;6.32;100.00;102112.69;4913145;29;20055;-66
2023/11/18 04:52:10;;;;;;;22.63;14.25;;;;;;;6.31;100.00;102105.63;4928703;29;20071;-66
2023/11/18 04:55:00;;;;;;;19.27;13.32;;;;;;;6.27;100.00;102118.72;4919212;29;20518;-68
2023/11/18 04:57:48;;;;;;;19.48;12.15;;;;;;;6.23;100.00;102120.19;4901393;29;20052;-67
2023/11/18 05:00:40;;;;;;;19.95;12.85;;;;;;;6.24;100.00;102110.19;4931527;29;20142;-68
2023/11/18 05:03:30;;;;;;;17.10;11.45;;;;;;;6.23;100.00;102111.22;4949006;29;20086;-62
2023/11/18 05:06:20;;;;;;;17.83;12.30;;;;;;;6.19;100.00;102105.41;4951347;29;20059;-64
2023/11/18 05:09:08;;;;;;;20.00;12.52;;;;;;;6.22;100.00;102104.97;4950098;29;20095;-68
2023/11/18 05:11:57;;;;;;;21.45;13.73;;;;;;;6.19;100.00;102110.81;4940283;29;20062;-65
2023/11/18 05:14:45;;;;;;;18.50;12.38;;;;;;;6.19;100.00;102102.69;4952181;29;20054;-63
2023/11/18 05:17:35;;;;;;;21.33;13.65;;;;;;;6.13;100.00;102092.69;4961961;29;20047;-61
2023/11/18 05:20:23;;;;;;;20.85;13.50;;;;;;;6.09;100.00;102094.97;4964679;29;20024;-66
2023/11/18 05:23:12;;;;;;;21.70;13.60;;;;;;;6.08;100.00;102085.19;4935981;29;20055;-66
2023/11/18 05:26:01;;;;;;;19.58;13.77;;;;;;;6.00;100.00;102090.81;4942407;29;20048;-66
2023/11/18 05:28:50;;;;;;;20.83;13.65;;;;;;;6.02;100.00;102079.78;4925870;29;20052;-66
2023/11/18 05:31:38;;;;;;;23.35;14.13;;;;;;;6.09;100.00;102078.75;4940536;29;20055;-66
2023/11/18 05:34:26;;;;;;;21.30;13.40;;;;;;;6.12;100.00;102081.03;4938819;29;20055;-69
2023/11/18 05:37:18;;;;;;;20.05;12.57;;;;;;;6.16;100.00;102078.75;4943939;29;20103;-69
2023/11/18 05:40:06;;;;;;;20.00;12.30;;;;;;;6.20;100.00;102077.28;4963094;29;20047;-69
2023/11/18 05:42:55;;;;;;;20.20;12.05;;;;;;;6.24;100.00;102077.72;4957067;29;20043;-67
2023/11/18 05:46:14;;;;;;;16.83;12.13;;;;;;;6.24;100.00;102080.41;4937873;28;20497;-68
2023/11/18 05:48:52;;;;;;;20.13;11.68;;;;;;;6.25;100.00;102072.06;4900398;29;20055;-68
2023/11/18 05:51:40;;;;;;;20.58;12.20;;;;;;;6.25;100.00;102066.66;4953205;29;20052;-68
2023/11/18 05:54:28;;;;;;;19.33;12.05;;;;;;;6.22;100.00;102047.31;4925743;29;20393;-68
2023/11/18 05:57:17;;;;;;;19.48;11.52;;;;;;;6.22;100.00;102061.66;4950285;29;20096;-68
2023/11/18 06:00:06;;;;;;;16.95;10.73;;;;;;;6.26;100.00;102053.97;4927442;29;20149;-67
2023/11/18 06:02:59;;;;;;;16.13;11.07;;;;;;;6.28;100.00;102044.63;4921231;29;20055;-67
2023/11/18 06:05:48;;;;;;;22.23;11.07;;;;;;;6.31;100.00;102044.19;4914989;29;20052;-67
2023/11/18 06:08:40;;;;;;;17.67;11.38;;;;;;;6.33;100.00;102050.22;4940572;29;20131;-67
2023/11/18 06:11:31;;;;;;;16.38;9.73;;;;;;;6.34;100.00;102043.75;4930718;29;20055;-67
2023/11/18 06:14:20;;;;;;;16.02;9.95;;;;;;;6.34;100.00;102046.47;4919758;29;20052;-68
2023/11/18 06:17:08;;;;;;;14.77;9.57;;;;;;;6.34;100.00;102032.94;4894295;29;20059;-66
2023/11/18 06:19:56;;;;;;;13.95;9.35;;;;;;;6.32;100.00;102021.47;4918063;29;20093;-66
2023/11/18 06:22:45;;;;;;;15.27;9.07;;;;;;;6.35;100.00;102029.19;4922084;29;20052;-66
2023/11/18 06:25:35;;;;;;;14.60;9.40;;;;;;;6.38;100.00;102045.00;4912556;29;20048;-66
2023/11/18 06:28:23;;;;;;;16.38;9.85;;;;;;;6.40;100.00;102051.06;4923560;29;20052;-66
2023/11/18 06:31:11;;;;;;;21.13;9.77;;;;;;;6.42;100.00;102055.41;4908941;29;20044;-66
2023/11/18 06:34:02;;;;;;;15.52;8.95;;;;;;;6.43;100.00;102040.84;4909237;29;20575;-66
2023/11/18 06:36:50;;;;;;;16.67;9.32;;;;;;;6.43;100.00;102030.84;4908510;29;20052;-66
2023/11/18 06:39:44;;;;;;;17.63;9.38;;;;;;;6.45;100.00;102034.19;4924061;29;20059;-67
2023/11/18 06:42:32;;;;;;;16.05;8.32;;;;;;;6.49;100.00;102030.00;4922174;29;20199;-67
2023/11/18 06:45:22;;;;;;;15.43;8.75;;;;;;;6.51;100.00;102040.63;4911457;29;20072;-68
2023/11/18 06:48:10;;;;;;;15.88;9.02;;;;;;;6.48;100.00;102038.34;4911541;29;20052;-68
2023/11/18 06:50:59;;;;;;;16.35;9.65;;;;;;;6.45;100.00;102036.88;4918846;29;20421;-67
2023/11/18 06:53:47;;;;;;;20.15;9.02;;;;;;;6.46;100.00;102033.13;4242187;29;10000127;-67
2023/11/18 06:56:42;;;;;;;15.02;8.35;;;;;;;6.50;100.00;102030.84;4932861;29;20051;-68
2023/11/18 06:59:30;;;;;;;16.08;8.43;;;;;;;6.52;100.00;102028.75;4918072;29;20488;-67
2023/11/18 07:02:18;;;;;;;16.27;8.85;;;;;;;6.50;100.00;102025.44;4940830;29;20050;-67
2023/11/18 07:05:07;;;;;;;13.02;8.00;;;;;;;6.49;100.00;102023.75;4951242;29;20500;-67
2023/11/18 07:07:55;;;;;;;13.88;7.80;;;;;;;6.50;100.00;102026.25;4924685;29;20048;-68
2023/11/18 07:10:44;;;;;;;14.82;8.20;;;;;;;6.51;100.00;102021.66;4921519;29;20040;-67
2023/11/18 07:13:34;;;;;;;13.45;7.97;;;;;;;6.52;100.00;102018.75;4921974;29;20184;-67
2023/11/18 07:16:23;;;;;;;13.73;7.70;;;;;;;6.52;100.00;102020.63;4948043;29;20044;-66
2023/11/18 07:19:17;;;;;;;11.60;7.57;;;;;;;6.55;100.00;102012.09;4914196;29;20054;-67
2023/11/18 07:22:07;;;;;;;17.15;7.63;;;;;;;6.54;100.00;102011.25;4926960;29;20516;-67
2023/11/18 07:24:54;;;;;;;13.77;8.15;;;;;;;6.53;100.00;102006.03;4955163;28;20075;-67
2023/11/18 07:27:44;;;;;;;15.02;8.18;;;;;;;6.52;100.00;102009.81;4928361;29;20079;-67
2023/11/18 07:30:32;;;;;;;13.00;7.75;;;;;;;6.52;100.00;102001.69;4913078;29;20119;-68
2023/11/18 07:33:21;;;;;;;13.80;7.72;;;;;;;6.54;100.00;102010.41;4932686;29;20051;-67
2023/11/18 07:36:11;;;;;;;12.18;7.20;;;;;;;6.57;100.00;102026.25;4933392;29;20138;-67
2023/11/18 07:39:02;;;;;;;12.18;7.53;;;;;;;6.56;100.00;102016.44;4933732;29;20047;-67
2023/11/18 07:41:51;;;;;;;13.07;6.55;;;;;;;6.56;100.00;102014.56;4919090;29;20059;-67
2023/11/18 07:44:40;;;;;;;13.18;7.22;;;;;;;6.59;100.00;102018.72;4931588;29;20066;-66
2023/11/18 07:47:29;;;;;;;14.73;7.15;;;;;;;6.60;100.00;102031.22;4933766;29;20150;-67
2023/11/18 07:50:19;;;;;;;15.05;6.93;;;;;;;6.60;100.00;102032.06;4931356;29;20138;-67
2023/11/18 07:53:08;;;;;;;13.35;6.85;;;;;;;6.61;100.00;102039.16;4945408;29;20047;-68
2023/11/18 07:55:56;;;;;;;12.95;6.72;;;;;;;6.62;100.00;102042.69;4949940;29;20055;-67
2023/11/18 07:58:46;;;;;;;13.77;7.00;;;;;;;6.59;100.00;102041.25;4936886;29;20132;-65
2023/11/18 08:01:34;;;;;;;15.80;7.10;;;;;;;6.57;100.00;102045.22;4920601;29;20190;-66
2023/11/18 08:04:22;;;;;;;13.32;6.75;;;;;;;6.58;100.00;102044.16;4932372;29;20134;-68
2023/11/18 08:07:10;;;;;;;12.32;7.13;;;;;;;6.60;100.00;102042.06;4931629;29;20397;-67
2023/11/18 08:09:58;;;;;;;11.00;6.57;;;;;;;6.60;100.00;102040.19;4933640;29;20126;-66
2023/11/18 08:12:49;;;;;;;11.32;6.03;;;;;;;6.63;100.00;102038.94;4945307;29;20106;-68
2023/11/18 08:15:41;;;;;;;11.73;6.40;;;;;;;6.64;100.00;102032.47;4945462;29;20205;-67
2023/11/18 08:18:31;;;;;;;10.60;6.22;;;;;;;6.65;100.00;102036.84;4933061;29;20476;-67
2023/11/18 08:21:20;;;;;;;13.00;6.30;;;;;;;6.65;100.00;102028.72;4919598;29;20643;-67
2023/11/18 08:24:08;;;;;;;10.50;6.03;;;;;;;6.65;100.00;102026.00;4905919;29;20046;-68
2023/11/18 08:26:56;;;;;;;13.88;6.40;;;;;;;6.66;100.00;102024.94;4949695;29;20066;-67
2023/11/18 08:29:46;;;;;;;13.32;6.10;;;;;;;6.64;100.00;102027.06;4939013;29;20134;-68
2023/11/18 08:32:34;;;;;;;10.45;5.28;;;;;;;6.63;100.00;102025.38;4935768;29;20071;-67
2023/11/18 08:35:22;;;;;;;11.73;5.53;;;;;;;6.66;100.00;102016.00;4933685;29;20476;-67
2023/11/18 08:38:12;;;;;;;11.75;5.95;;;;;;;6.68;100.00;102017.44;4932343;29;20056;-67
2023/11/18 08:41:00;;;;;;;11.65;5.88;;;;;;;6.69;100.00;102008.31;4918855;29;20052;-68
2023/11/18 08:43:49;;;;;;;13.45;6.97;;;;;;;6.70;100.00;101999.13;4931424;29;20552;-66
2023/11/18 08:46:37;;;;;;;11.93;5.72;;;;;;;6.73;100.00;101993.25;4931081;29;20529;-67
2023/11/18 08:49:25;;;;;;;17.55;7.00;;;;;;;6.76;100.00;101982.03;4918285;29;20183;-66
2023/11/18 08:52:13;;;;;;;12.60;6.07;;;;;;;6.75;100.00;101980.34;4937302;29;20118;-67
2023/11/18 08:55:17;;;;;;;16.45;5.78;;;;;;;6.71;100.00;101973.72;4964558;28;20163;-68
2023/11/18 08:58:15;;;;;;;10.95;6.15;;;;;;;6.66;100.00;101959.97;4926894;29;20102;-66
2023/11/18 09:01:13;;;;;;;12.02;6.32;;;;;;;6.65;100.00;101961.00;4945153;29;20059;-69
2023/11/18 09:04:02;;;;;;;13.05;6.57;;;;;;;6.65;100.00;101960.19;4933027;29;20088;-67
2023/11/18 09:06:54;;;;;;;13.70;6.35;;;;;;;6.64;100.00;101956.66;4917839;29;20058;-68
2023/11/18 09:09:43;;;;;;;13.13;6.38;;;;;;;6.64;100.00;101956.66;4929911;29;20063;-68
2023/11/18 09:12:32;;;;;;;12.05;6.55;;;;;;;6.65;100.00;101961.00;4932207;29;20047;-67
2023/11/18 09:15:22;;;;;;;13.68;6.93;;;;;;;6.67;100.00;101949.97;4917618;29;20131;-68
2023/11/18 09:18:10;;;;;;;14.35;6.47;;;;;;;6.68;100.00;101954.34;4943851;29;20044;-67
2023/11/18 09:21:00;;;;;;;10.43;5.75;;;;;;;6.70;100.00;101949.53;4931877;29;20123;-67
2023/11/18 09:23:49;;;;;;;12.95;5.78;;;;;;;6.71;100.00;101946.63;4919870;29;20054;-67
2023/11/18 09:26:37;;;;;;;11.35;5.80;;;;;;;6.73;100.00;101927.44;4933188;29;20040;-69
2023/11/18 09:29:25;;;;;;;13.02;5.85;;;;;;;6.74;100.00;101938.06;4951801;28;20044;-66
2023/11/18 09:32:14;;;;;;;11.35;5.78;;;;;;;6.76;100.00;101927.03;4950302;29;20496;-68
2023/11/18 09:35:08;;;;;;;11.80;5.38;;;;;;;6.73;100.00;101911.19;4945473;29;20044;-65
2023/11/18 09:37:59;;;;;;;13.23;5.18;;;;;;;6.74;100.00;101910.16;4935973;29;20040;-64
2023/11/18 09:40:48;;;;;;;15.73;5.25;;;;;;;6.73;100.00;101895.75;4945599;29;20043;-64
2023/11/18 09:43:46;;;;;;;12.95;5.55;;;;;;;6.74;100.00;101894.72;4959828;29;20103;-66
2023/11/18 09:46:40;;;;;;;15.65;5.75;;;;;;;6.79;100.00;101900.31;4948899;29;20482;-71
2023/11/18 09:49:38;;;;;;;10.13;4.43;;;;;;;6.81;100.00;101894.69;4917767;29;20048;-66
2023/11/18 09:52:27;;;;;;;11.52;4.60;;;;;;;6.78;100.00;101893.25;4927586;29;20392;-67
2023/11/18 09:55:23;;;;;;;11.32;4.50;;;;;;;6.75;100.00;101885.53;4915910;29;20045;-68
2023/11/18 09:58:15;;;;;;;11.35;4.28;;;;;;;6.77;100.00;101888.06;4951338;29;20074;-66
2023/11/18 10:01:04;;;;;;;15.23;4.47;;;;;;;6.79;100.00;101872.41;4949464;29;20079;-66
2023/11/18 10:03:52;;;;;;;10.98;4.65;;;;;;;6.82;100.00;101872.78;4591768;28;9999930;-67
2023/11/18 10:06:44;;;;;;;9.07;4.35;;;;;;;6.84;100.00;101869.88;4943308;29;20044;-66
2023/11/18 10:09:43;;;;;;;10.88;4.22;;;;;;;6.82;100.00;101867.38;4904572;29;20051;-67
2023/11/18 10:12:31;;;;;;;13.25;5.15;;;;;;;6.82;100.00;101850.31;4920243;29;20516;-67
2023/11/18 10:15:24;;;;;;;10.77;4.57;;;;;;;6.83;100.00;101831.13;4920770;29;20218;-67
2023/11/18 10:18:21;;;;;;;9.98;4.35;;;;;;;6.82;100.00;101840.28;4916405;29;20040;-67
2023/11/18 10:21:17;;;;;;;13.57;4.55;;;;;;;6.82;100.00;101834.88;4919386;29;20048;-67
2023/11/18 10:24:19;;;;;;;10.70;4.53;;;;;;;6.83;100.00;101831.13;4937582;28;20509;-67
2023/11/18 10:27:11;;;;;;;15.35;4.35;;;;;;;6.83;100.00;101831.13;4933725;29;20052;-67
2023/11/18 10:30:04;;;;;;;7.47;3.72;;;;;;;6.86;100.00;101824.44;4919454;29;20516;-67
2023/11/18 10:33:05;;;;;;;10.32;3.78;;;;;;;6.90;100.00;101825.66;4945278;29;20103;-68
2023/11/18 10:35:55;;;;;;;10.73;4.03;;;;;;;6.90;100.00;101827.53;4925766;29;20052;-67
2023/11/18 10:38:49;;;;;;;11.15;4.45;;;;;;;6.94;100.00;101828.75;4895480;29;20055;-67
2023/11/18 10:41:45;;;;;;;10.98;4.30;;;;;;;6.92;100.00;101809.19;4934757;29;20071;-66
2023/11/18 10:44:34;;;;;;;12.15;4.38;;;;;;;6.90;100.00;101803.16;4928751;29;20040;-67
2023/11/18 10:47:24;;;;;;;10.90;3.67;;;;;;;6.91;100.00;101807.53;4914979;29;20081;-67
2023/11/18 10:50:13;;;;;;;11.15;3.92;;;;;;;6.94;100.00;101801.69;4912886;29;20207;-67
2023/11/18 10:53:03;;;;;;;9.88;4.15;;;;;;;6.95;100.00;101804.19;4891653;29;20901;-67
2023/11/18 10:55:52;;;;;;;10.55;4.07;;;;;;;6.96;100.00;101805.00;4934601;29;20051;-69
2023/11/18 10:58:41;;;;;;;14.25;3.97;;;;;;;6.97;100.00;101803.94;4906425;29;20122;-67
2023/11/18 11:01:42;;;;;;;13.57;3.50;;;;;;;6.97;100.00;101790.38;4897706;29;20053;-67
2023/11/18 11:04:44;;;;;;;11.07;3.88;;;;;;;7.00;100.00;101798.91;4924891;29;20044;-69
2023/11/18 11:07:33;;;;;;;10.95;4.10;;;;;;;7.07;100.00;101806.16;4927267;29;20045;-68
2023/11/18 11:10:28;;;;;;;7.40;3.42;;;;;;;7.07;100.00;101809.72;4930136;29;20062;-68
2023/11/18 11:13:17;;;;;;;11.77;4.75;;;;;;;7.11;100.00;101802.78;4926638;29;20428;-67
2023/11/18 11:16:09;;;;;;;12.45;4.75;;;;;;;7.12;100.00;101790.91;4927388;29;20059;-70
2023/11/18 11:19:08;;;;;;;11.10;4.13;;;;;;;7.08;100.00;101759.88;4927286;29;20072;-70
2023/11/18 11:22:06;;;;;;;12.48;4.10;;;;;;;7.03;100.00;101755.13;4925870;29;20551;-68
2023/11/18 11:25:22;;;;;;;10.70;3.80;;;;;;;7.01;100.00;101751.78;4928509;29;20047;-69
2023/11/18 11:28:20;;;;;;;10.18;3.95;;;;;;;6.99;100.00;101748.47;4918452;29;20047;-69
2023/11/18 11:31:25;;;;;;;11.15;4.28;;;;;;;6.98;100.00;101735.16;4914450;29;20414;-69
2023/11/18 11:34:20;;;;;;;10.85;3.67;;;;;;;6.99;100.00;101725.97;4918096;29;20441;-70
2023/11/18 11:37:09;;;;;;;11.75;3.65;;;;;;;7.02;100.00;101718.25;4927504;29;20523;-69
2023/11/18 11:39:58;;;;;;;12.43;3.90;;;;;;;7.02;100.00;101714.69;4918494;29;20044;-69
2023/11/18 11:42:47;;;;;;;10.85;3.80;;;;;;;7.02;100.00;101693.00;4913028;29;20040;-68
2023/11/18 11:45:36;;;;;;;10.77;3.78;;;;;;;7.03;100.00;101657.56;4933487;28;20095;-68
2023/11/18 11:48:28;;;;;;;11.75;3.60;;;;;;;7.07;100.00;101671.53;4932076;29;20048;-69
2023/11/18 11:51:37;;;;;;;9.63;3.25;;;;;;;7.10;100.00;101662.94;4928649;29;20041;-69
2023/11/18 11:54:40;;;;;;;11.23;3.40;;;;;;;7.09;100.00;101655.84;4929739;29;20113;-69
2023/11/18 11:57:28;;;;;;;9.73;3.15;;;;;;;7.09;100.00;101645.00;4912307;29;20504;-70
2023/11/18 12:00:25;;;;;;;12.27;3.58;;;;;;;7.10;100.00;101625.00;4915310;29;20059;-70
2023/11/18 12:03:17;;;;;;;9.65;3.58;;;;;;;7.13;100.00;101624.53;4904448;29;20054;-69
2023/11/18 12:06:07;;;;;;;12.15;4.10;;;;;;;7.16;100.00;101604.28;4915859;29;20134;-68
2023/11/18 12:09:00;;;;;;;8.27;3.47;;;;;;;7.18;100.00;101592.16;4904515;29;20040;-71
2023/11/18 12:11:48;;;;;;;11.60;3.58;;;;;;;7.19;100.00;101585.69;4910302;29;20125;-68
2023/11/18 12:15:06;;;;;;;9.40;3.70;;;;;;;7.22;100.00;101579.00;4902610;29;20385;-68
2023/11/18 12:17:58;;;;;;;12.70;3.67;;;;;;;7.24;100.00;101583.13;4903259;29;20467;-68
2023/11/18 12:20:47;;;;;;;12.05;3.95;;;;;;;7.27;100.00;101581.03;4918122;29;20065;-69
2023/11/18 12:23:36;;;;;;;10.80;3.60;;;;;;;7.29;100.00;101579.75;4904318;29;20044;-69
2023/11/18 12:26:40;;;;;;;9.45;3.30;;;;;;;7.30;100.00;101559.69;4904267;29;20070;-68
2023/11/18 12:29:34;;;;;;;6.78;3.05;;;;;;;7.30;100.00;101545.31;4903112;29;20044;-69
2023/11/18 12:33:11;;;;;;;9.77;3.30;;;;;;;7.30;100.00;101531.78;4916436;29;20036;-68
2023/11/18 12:36:17;;;;;;;11.07;3.45;;;;;;;7.34;100.00;101514.00;4912883;29;20484;-67
2023/11/18 12:39:31;;;;;;;8.40;3.10;;;;;;;7.34;100.00;101505.88;4907617;29;20070;-69
2023/11/18 12:42:58;;;;;;;7.87;3.17;;;;;;;7.35;100.00;101496.66;4907081;29;20052;-69
2023/11/18 12:46:19;;;;;;;10.10;3.38;;;;;;;7.35;100.00;101492.06;4891212;29;20076;-68
2023/11/18 12:49:15;;;;;;;10.82;3.33;;;;;;;7.35;100.00;101472.28;4907187;29;20059;-69
2023/11/18 12:52:08;;;;;;;9.55;3.15;;;;;;;7.36;100.00;101446.81;4906747;29;20067;-68
2023/11/18 12:54:58;;;;;;;8.68;3.45;;;;;;;7.37;100.00;101432.22;4915743;29;20044;-68
2023/11/18 12:57:48;;;;;;;10.18;3.42;;;;;;;7.36;100.00;101407.00;4928340;29;20390;-67
2023/11/18 13:00:36;;;;;;;10.60;3.70;;;;;;;7.36;100.00;101416.97;4931096;29;20186;-68
2023/11/18 13:03:25;;;;;;;7.88;3.22;;;;;;;7.38;100.00;101404.03;4251000;28;10000617;-68